createdAt,value
2019-02-08T00:01:06.862Z,4.20
2019-02-08T00:03:56.348Z,4.20
2019-02-08T00:06:38.043Z,4.20
2019-02-08T00:09:27.684Z,4.10
2019-02-08T00:12:10.197Z,4.10
2019-02-08T00:14:59.765Z,4.10
2019-02-08T00:17:42.306Z,4.10
2019-02-08T00:23:32.915Z,4.00
2019-02-08T00:26:22.457Z,4.00
2019-02-08T00:29:04.654Z,4.00
2019-02-08T00:31:54.176Z,4.00
2019-02-08T00:34:36.606Z,4.00
2019-02-08T00:37:26.134Z,4.00
2019-02-08T00:43:23.611Z,4.00
2019-02-08T00:46:13.170Z,3.90
2019-02-08T00:48:56.606Z,3.90
2019-02-08T00:51:46.120Z,3.90
2019-02-08T00:54:28.760Z,3.90
2019-02-08T00:57:18.250Z,3.90
2019-02-08T01:00:47.529Z,3.90
2019-02-08T01:03:29.598Z,3.90
2019-02-08T01:06:19.112Z,3.90
2019-02-08T01:09:01.520Z,3.90
2019-02-08T01:11:51.085Z,3.80
2019-02-08T01:14:33.687Z,3.80
2019-02-08T01:17:23.211Z,3.80
2019-02-08T01:20:08.739Z,3.80
2019-02-08T01:22:51.267Z,3.80
2019-02-08T01:25:42.855Z,3.80
2019-02-08T01:28:24.740Z,3.80
2019-02-08T01:31:33.150Z,3.80
2019-02-08T01:34:15.573Z,3.80
2019-02-08T01:37:05.068Z,3.90
2019-02-08T01:39:47.055Z,3.90
2019-02-08T01:45:44.731Z,3.90
2019-02-08T01:48:34.227Z,3.90
2019-02-08T01:51:16.097Z,3.90
2019-02-08T01:54:05.704Z,3.90
2019-02-08T01:56:48.299Z,3.90
2019-02-08T01:59:37.737Z,3.90
2019-02-08T02:02:20.412Z,3.90
2019-02-08T02:08:17.750Z,3.90
2019-02-08T02:11:07.261Z,3.80
2019-02-08T02:13:49.944Z,3.80
2019-02-08T02:16:39.482Z,3.70
2019-02-08T02:19:21.430Z,3.70
2019-02-08T02:22:03.279Z,3.70
2019-02-08T02:24:52.770Z,3.70
2019-02-08T02:27:42.289Z,3.60
2019-02-08T02:31:12.365Z,3.60
2019-02-08T02:33:54.385Z,3.60
2019-02-08T02:36:43.892Z,3.60
2019-02-08T02:39:26.377Z,3.50
2019-02-08T02:42:34.772Z,3.50
2019-02-08T02:45:18.726Z,3.50
2019-02-08T02:51:36.799Z,3.40
2019-02-08T02:54:26.342Z,3.40
2019-02-08T02:57:34.749Z,3.40
2019-02-08T03:00:18.113Z,3.40
2019-02-08T03:06:16.141Z,3.30
2019-02-08T03:12:00.280Z,3.30
2019-02-08T03:14:49.768Z,3.30
2019-02-08T03:17:39.285Z,3.20
2019-02-08T03:20:21.343Z,3.30
2019-02-08T03:23:03.329Z,3.30
2019-02-08T03:25:52.834Z,3.30
2019-02-08T03:28:35.450Z,3.30
2019-02-08T03:31:24.960Z,3.40
2019-02-08T03:34:07.458Z,3.40
2019-02-08T03:37:16.008Z,3.40
2019-02-08T03:39:57.624Z,3.40
2019-02-08T03:42:47.122Z,3.50
2019-02-08T03:45:33.198Z,3.50
2019-02-08T03:48:22.716Z,3.60
2019-02-08T03:51:04.627Z,3.60
2019-02-08T03:56:41.328Z,3.60
2019-02-08T03:59:41.539Z,3.70
2019-02-08T04:02:31.085Z,3.70
2019-02-08T04:05:13.181Z,3.70
2019-02-08T04:08:02.649Z,3.70
2019-02-08T04:10:45.020Z,3.80
2019-02-08T04:13:34.549Z,3.80
2019-02-08T04:16:17.248Z,3.80
2019-02-08T04:22:15.012Z,3.80
2019-02-08T04:31:08.261Z,3.80
2019-02-08T04:33:50.817Z,3.70
2019-02-08T04:36:40.392Z,3.70
2019-02-08T04:39:23.451Z,3.70
2019-02-08T04:42:13.000Z,3.70
2019-02-08T04:44:55.016Z,3.70
2019-02-08T04:47:44.606Z,3.60
2019-02-08T04:50:27.220Z,3.60
2019-02-08T04:56:23.690Z,3.50
2019-02-08T04:59:13.246Z,3.40
2019-02-08T05:02:02.771Z,3.40
2019-02-08T05:04:45.308Z,3.30
2019-02-08T05:07:53.714Z,3.30
2019-02-08T05:10:35.998Z,3.20
2019-02-08T05:16:26.637Z,3.20
2019-02-08T05:19:08.381Z,3.20
2019-02-08T05:21:57.891Z,3.20
2019-02-08T05:24:46.027Z,3.20
2019-02-08T05:27:33.663Z,3.20
2019-02-08T05:30:20.487Z,3.20
2019-02-08T05:33:09.973Z,3.10
2019-02-08T05:35:53.195Z,3.10
2019-02-08T05:38:42.739Z,3.00
2019-02-08T05:41:25.191Z,2.90
2019-02-08T05:44:33.605Z,2.90
2019-02-08T05:47:15.953Z,2.80
2019-02-08T05:50:45.668Z,2.80
2019-02-08T05:53:27.832Z,2.70
2019-02-08T05:56:17.328Z,2.60
2019-02-08T05:58:59.772Z,2.60
2019-02-08T06:04:56.229Z,2.50
2019-02-08T06:07:45.775Z,2.40
2019-02-08T06:10:35.300Z,2.40
2019-02-08T06:13:17.011Z,2.30
2019-02-08T06:19:14.705Z,2.30
2019-02-08T06:22:23.405Z,2.30
2019-02-08T06:25:52.389Z,2.30
2019-02-08T06:28:34.739Z,2.20
2019-02-08T06:31:24.255Z,2.20
2019-02-08T06:34:07.021Z,2.20
2019-02-08T06:40:03.036Z,2.20
2019-02-08T06:43:03.543Z,2.10
2019-02-08T06:48:53.704Z,2.10
2019-02-08T06:51:35.376Z,2.10
2019-02-08T06:54:25.080Z,2.10
2019-02-08T07:00:52.395Z,2.00
2019-02-08T07:03:50.764Z,2.00
2019-02-08T07:07:01.504Z,2.00
2019-02-08T07:10:03.079Z,1.90
2019-02-08T07:13:11.495Z,2.00
2019-02-08T07:16:12.223Z,2.00
2019-02-08T07:19:20.886Z,2.00
2019-02-08T07:22:10.765Z,2.00
2019-02-08T07:28:21.590Z,2.10
2019-02-08T07:31:23.390Z,2.20
2019-02-08T07:37:24.477Z,2.30
2019-02-08T07:40:20.436Z,2.30
2019-02-08T07:46:24.562Z,2.40
2019-02-08T07:52:22.761Z,2.50
2019-02-08T07:58:55.223Z,2.50
2019-02-08T08:01:56.994Z,2.60
2019-02-08T08:08:13.547Z,2.70
2019-02-08T08:11:13.069Z,2.80
2019-02-08T08:17:35.747Z,3.00
2019-02-08T08:23:57.775Z,3.10
2019-02-08T08:26:58.392Z,3.20
2019-02-08T08:37:11.828Z,3.40
2019-02-08T08:40:12.814Z,3.50
2019-02-08T08:46:52.714Z,3.70
2019-02-08T08:50:29.894Z,3.80
2019-02-08T08:53:57.534Z,3.90
2019-02-08T09:00:42.868Z,4.20
2019-02-08T09:07:21.159Z,4.40
2019-02-08T09:10:48.763Z,4.50
2019-02-08T09:13:35.122Z,4.70
2019-02-08T09:20:32.335Z,5.00
2019-02-08T09:23:36.769Z,5.20
2019-02-08T09:27:04.402Z,5.40
2019-02-08T09:30:05.947Z,5.60
2019-02-08T09:33:33.555Z,5.70
2019-02-08T09:36:34.709Z,6.00
2019-02-08T09:40:02.316Z,6.20
2019-02-08T09:43:03.756Z,6.40
2019-02-08T09:50:11.104Z,6.90
2019-02-08T09:53:12.780Z,7.10
2019-02-08T09:56:40.694Z,7.20
2019-02-08T09:59:42.250Z,7.40
2019-02-08T10:03:10.060Z,7.60
2019-02-08T10:06:11.726Z,7.90
2019-02-08T10:09:39.368Z,8.00
2019-02-08T10:12:40.892Z,8.30
2019-02-08T10:16:08.550Z,8.50
2019-02-08T10:22:44.341Z,8.90
2019-02-08T10:29:30.387Z,9.30
2019-02-08T10:32:32.048Z,9.50
2019-02-08T10:35:59.683Z,9.70
2019-02-08T10:39:01.278Z,10.00
2019-02-08T10:42:28.902Z,10.20
2019-02-08T10:45:33.311Z,10.40
2019-02-08T10:48:35.808Z,10.60
2019-02-08T10:52:03.451Z,10.80
2019-02-08T10:55:04.743Z,10.90
2019-02-08T10:58:32.471Z,10.90
2019-02-08T11:01:41.763Z,10.90
2019-02-08T11:05:06.280Z,11.00
2019-02-08T11:08:08.175Z,11.20
2019-02-08T11:11:35.843Z,11.20
2019-02-08T11:15:03.485Z,11.30
2019-02-08T11:21:16.260Z,11.40
2019-02-08T11:23:58.516Z,11.40
2019-02-08T11:26:41.760Z,11.50
2019-02-08T11:32:43.540Z,11.60
2019-02-08T11:38:35.377Z,11.70
2019-02-08T11:41:17.831Z,11.80
2019-02-08T11:47:01.070Z,12.00
2019-02-08T11:49:50.831Z,12.00
2019-02-08T11:52:40.370Z,12.00
2019-02-08T11:55:29.943Z,12.00
2019-02-08T11:58:11.706Z,11.90
2019-02-08T12:04:09.378Z,11.80
2019-02-08T12:06:58.981Z,11.80
2019-02-08T12:09:40.829Z,11.90
2019-02-08T12:12:49.248Z,11.90
2019-02-08T12:15:31.561Z,11.90
2019-02-08T12:18:21.095Z,11.90
2019-02-08T12:21:03.092Z,12.00
2019-02-08T12:23:52.734Z,12.00
2019-02-08T12:26:37.996Z,12.00
2019-02-08T12:29:26.629Z,12.10
2019-02-08T12:32:09.168Z,12.10
2019-02-08T12:35:17.593Z,12.20
2019-02-08T12:40:56.784Z,12.20
2019-02-08T12:43:46.299Z,12.30
2019-02-08T12:46:28.687Z,12.30
2019-02-08T12:49:18.200Z,12.40
2019-02-08T12:52:00.615Z,12.40
2019-02-08T12:54:50.206Z,12.40
2019-02-08T12:57:39.807Z,12.50
2019-02-08T13:00:29.603Z,12.50
2019-02-08T13:03:13.539Z,12.60
2019-02-08T13:05:55.341Z,12.60
2019-02-08T13:11:52.934Z,12.80
2019-02-08T13:15:02.429Z,12.90
2019-02-08T13:17:45.029Z,12.90
2019-02-08T13:20:34.568Z,13.00
2019-02-08T13:23:17.399Z,13.00
2019-02-08T13:25:59.946Z,13.10
2019-02-08T13:28:49.477Z,13.10
2019-02-08T13:31:31.958Z,13.10
2019-02-08T13:34:21.501Z,13.20
2019-02-08T13:37:03.488Z,13.20
2019-02-08T13:46:08.506Z,13.10
2019-02-08T13:48:50.725Z,13.10
2019-02-08T13:51:40.368Z,13.10
2019-02-08T13:54:23.005Z,13.10
2019-02-08T13:57:12.735Z,13.00
2019-02-08T13:59:55.163Z,13.00
2019-02-08T14:02:44.707Z,12.90
2019-02-08T14:05:27.624Z,12.80
2019-02-08T14:08:09.732Z,12.70
2019-02-08T14:13:52.305Z,12.50
2019-02-08T14:16:43.902Z,12.40
2019-02-08T14:19:52.315Z,12.30
2019-02-08T14:23:02.817Z,12.10
2019-02-08T14:25:44.523Z,12.00
2019-02-08T14:28:52.929Z,11.90
2019-02-08T14:31:35.097Z,11.70
2019-02-08T14:34:43.955Z,11.60
2019-02-08T14:37:27.881Z,11.50
2019-02-08T14:43:45.236Z,11.30
2019-02-08T14:49:35.551Z,11.10
2019-02-08T14:52:17.624Z,11.00
2019-02-08T14:55:26.682Z,11.00
2019-02-08T14:58:08.730Z,10.90
2019-02-08T15:07:05.029Z,10.60
2019-02-08T15:09:54.546Z,10.50
2019-02-08T15:12:42.912Z,10.40
2019-02-08T15:15:30.972Z,10.20
2019-02-08T15:18:14.058Z,10.10
2019-02-08T15:24:10.454Z,9.80
2019-02-08T15:33:08.060Z,9.30
2019-02-08T15:35:56.505Z,9.20
2019-02-08T15:38:44.489Z,9.00
2019-02-08T15:41:27.996Z,8.90
2019-02-08T15:44:09.957Z,8.70
2019-02-08T15:46:52.453Z,8.50
2019-02-08T15:52:49.681Z,8.20
2019-02-08T15:59:09.306Z,7.80
2019-02-08T16:01:51.362Z,7.60
2019-02-08T16:04:40.904Z,7.40
2019-02-08T16:07:23.076Z,7.20
2019-02-08T16:13:20.993Z,6.80
2019-02-08T16:16:22.031Z,6.60
2019-02-08T16:22:04.884Z,6.20
2019-02-08T16:24:54.616Z,6.00
2019-02-08T16:27:44.133Z,5.80
2019-02-08T16:30:45.018Z,5.60
2019-02-08T16:36:26.791Z,5.20
2019-02-08T16:39:27.727Z,5.00
2019-02-08T16:42:17.283Z,4.80
2019-02-08T16:44:59.199Z,4.70
2019-02-08T16:50:56.471Z,4.40
2019-02-08T16:53:53.297Z,4.30
2019-02-08T16:56:31.540Z,4.10
2019-02-08T17:02:29.497Z,3.90
2019-02-08T17:08:45.917Z,3.80
2019-02-08T17:11:27.875Z,3.70
2019-02-08T17:14:17.437Z,3.60
2019-02-08T17:16:59.822Z,3.60
2019-02-08T17:19:49.283Z,3.50
2019-02-08T17:22:31.628Z,3.50
2019-02-08T17:28:29.949Z,3.40
2019-02-08T17:31:19.570Z,3.40
2019-02-08T17:34:04.915Z,3.40
2019-02-08T17:36:47.360Z,3.30
2019-02-08T17:39:36.889Z,3.30
2019-02-08T17:42:19.214Z,3.30
2019-02-08T17:48:31.426Z,3.20
2019-02-08T17:51:13.672Z,3.10
2019-02-08T17:54:03.537Z,3.10
2019-02-08T17:56:45.637Z,3.00
2019-02-08T18:02:45.235Z,2.90
2019-02-08T18:08:37.677Z,2.70
2019-02-08T18:11:19.861Z,2.70
2019-02-08T18:14:48.963Z,2.60
2019-02-08T18:17:31.907Z,2.60
2019-02-08T18:23:47.129Z,2.50
2019-02-08T18:26:29.049Z,2.40
2019-02-08T18:29:58.891Z,2.40
2019-02-08T18:32:48.528Z,2.30
2019-02-08T18:35:38.168Z,2.20
2019-02-08T18:38:38.735Z,2.20
2019-02-08T18:44:22.840Z,2.10
2019-02-08T18:47:31.632Z,2.00
2019-02-08T18:53:40.687Z,1.90
2019-02-08T18:56:22.377Z,1.80
2019-02-08T18:59:30.891Z,1.80
2019-02-08T19:02:13.292Z,1.70
2019-02-08T19:08:00.063Z,1.70
2019-02-08T19:10:42.812Z,1.70
2019-02-08T19:13:51.484Z,1.60
2019-02-08T19:16:33.783Z,1.60
2019-02-08T19:19:24.158Z,1.60
2019-02-08T19:22:09.303Z,1.60
2019-02-08T19:31:18.998Z,1.60
2019-02-08T19:34:08.659Z,1.60
2019-02-08T19:36:51.703Z,1.60
2019-02-08T19:42:43.376Z,1.70
2019-02-08T19:45:33.431Z,1.70
2019-02-08T19:48:15.595Z,1.80
2019-02-08T19:53:58.616Z,2.00
2019-02-08T19:59:57.015Z,2.20
2019-02-08T20:18:24.246Z,2.50
2019-02-08T20:21:14.046Z,2.50
2019-02-08T20:23:55.806Z,2.60
2019-02-08T20:29:47.573Z,2.70
2019-02-08T20:32:30.134Z,2.70
2019-02-08T20:35:59.807Z,2.70
2019-02-08T20:38:42.340Z,2.70
2019-02-08T20:41:32.006Z,2.80
2019-02-08T20:44:18.801Z,2.80
2019-02-08T20:47:05.144Z,2.80
2019-02-08T20:59:14.291Z,2.70
2019-02-08T21:01:56.791Z,2.70
2019-02-08T21:04:46.315Z,2.60
2019-02-08T21:07:28.311Z,2.60
2019-02-08T21:10:36.798Z,2.60
2019-02-08T21:13:20.013Z,2.50
2019-02-08T21:16:09.519Z,2.50
2019-02-08T21:18:51.992Z,2.50
2019-02-08T21:21:41.601Z,2.50
2019-02-08T21:24:24.094Z,2.60
2019-02-08T21:27:13.747Z,2.60
2019-02-08T21:30:44.431Z,2.60
2019-02-08T21:33:27.323Z,2.60
2019-02-08T21:36:16.911Z,2.50
2019-02-08T21:38:58.908Z,2.50
2019-02-08T21:44:40.841Z,2.40
2019-02-08T21:47:32.911Z,2.40
2019-02-08T21:53:37.707Z,2.50
2019-02-08T21:56:20.065Z,2.60
2019-02-08T21:59:09.535Z,2.50
2019-02-08T22:01:51.971Z,2.50
2019-02-08T22:04:41.669Z,2.50
2019-02-08T22:07:25.409Z,2.40
2019-02-08T22:13:07.510Z,2.40
2019-02-08T22:15:57.076Z,2.40
2019-02-08T22:18:46.609Z,2.40
2019-02-08T22:21:28.987Z,2.40
2019-02-08T22:24:18.535Z,2.40
2019-02-08T22:27:02.873Z,2.30
2019-02-08T22:30:11.572Z,2.30
2019-02-08T22:32:54.684Z,2.30
2019-02-08T22:35:44.189Z,2.30
2019-02-08T22:38:26.822Z,2.20
2019-02-08T22:41:19.332Z,2.20
2019-02-08T22:44:01.162Z,2.20
2019-02-08T22:46:53.004Z,2.10
2019-02-08T22:49:35.436Z,2.10
2019-02-08T22:55:31.898Z,2.00
2019-02-08T23:02:17.449Z,1.90
2019-02-08T23:05:01.608Z,1.90
2019-02-08T23:08:10.677Z,1.80
2019-02-08T23:10:53.809Z,1.80
2019-02-08T23:23:29.354Z,1.60
2019-02-08T23:26:12.018Z,1.60
2019-02-08T23:29:01.616Z,1.60
2019-02-08T23:31:43.435Z,1.70
2019-02-08T23:37:39.890Z,1.80
2019-02-08T23:40:29.412Z,1.80
2019-02-08T23:43:19.716Z,1.90
2019-02-08T23:46:09.228Z,1.90
2019-02-08T23:48:51.306Z,2.00
2019-02-08T23:51:40.938Z,2.00
2019-02-08T23:54:22.818Z,2.10
2019-02-08T23:57:12.551Z,2.10
2019-02-08T23:59:55.102Z,2.10
